Strona główna
METAR-TAF:

METAR-TAF

Lotnisko :

Port lotniczy Perpignan - Rivesaltes

Perpignan, Francja

Szerokość geograficzna: 42-44N, Długość geograficzna: 002-52E, wysokość: 43 m

Aktualna obserwacja pogody

Raport powstał 18 minut temu, godzina 22:30 UTC
Wiatr 6 kt od północny zachód
Temperatura 12°C
Wilgotność 82%
Ciśnienie 1025 hPa
Widzialność 10 km lub więcej
Brak chmur poniżej 1500 m i brak chmur cumulonimbus

METAR: LFMP 062230Z AUTO 32006KT CAVOK 12/09 Q1025

czas: 00:48 (22:48 UTC)


TAF: brakujący

Obserwacja i prognoza pogody dla ponad 4000 lotnisk (raport METAR i TAF).

Dostępne stacje oznaczono żółtymi i czerwonymi punktami na mapie.

Najedź kursorem aby zobaczyć nazwę stacji.

Kliknij aby zobaczyć obserwacje i prognozy pogody.

Aby zmienić mapę: kliknij na zielony przycisk z czarnym krzyżykiem, aby powiększyć; na zielony przycisk z myślnikiem, aby pomniejszyć; na zielone strzałki, aby przejść do map sąsiednich.


METAR-TAF: